Time;durP1;ratioP1;P1;durP2;ratioP2;P2;SDS_P1;SDS_P2;PMS_P1;PMS_P2;Temp;Humidity;BMP_temperature;BMP_pressure;BME280_temperature;BME280_humidity;BME280_pressure;Samples;Min_cycle;Max_cycle;Signal;HPM_P1;HPM_P2
2023/01/09 00:00:51;;;;;;;25.85;15.00;;;;;;;;;;10430744;28;20041;-79
2023/01/09 00:05:54;;;;;;;28.48;15.70;;;;;;;;;;10422634;28;20053;-77
2023/01/09 00:10:56;;;;;;;25.00;14.57;;;;;;;;;;10412364;28;20059;-76
2023/01/09 00:15:58;;;;;;;26.05;15.63;;;;;;;;;;10412944;28;20415;-76
2023/01/09 00:21:01;;;;;;;28.02;14.88;;;;;;;;;;10432359;28;20198;-76
2023/01/09 00:26:06;;;;;;;24.85;15.57;;;;;;;;;;10403254;28;20504;-76
2023/01/09 00:31:07;;;;;;;26.52;15.43;;;;;;;;;;10417551;28;20064;-76
2023/01/09 00:36:08;;;;;;;28.95;15.85;;;;;;;;;;10438128;28;20045;-77
2023/01/09 00:41:17;;;;;;;33.53;17.95;;;;;;;;;;10454198;28;20036;-77
2023/01/09 00:46:19;;;;;;;30.75;16.63;;;;;;;;;;10414779;28;20046;-76
2023/01/09 00:51:21;;;;;;;26.92;16.55;;;;;;;;;;10461727;28;20049;-77
2023/01/09 00:56:21;;;;;;;31.52;16.30;;;;;;;;;;10418744;28;20069;-76
2023/01/09 01:01:22;;;;;;;30.83;17.15;;;;;;;;;;10428199;28;20036;-78
2023/01/09 01:11:43;;;;;;;29.45;16.65;;;;;;;;;;10421078;28;20051;-76
2023/01/09 01:16:43;;;;;;;30.67;16.58;;;;;;;;;;10448258;28;20077;-77
2023/01/09 01:21:44;;;;;;;29.10;16.90;;;;;;;;;;10451715;28;20052;-75
2023/01/09 01:26:49;;;;;;;31.35;17.15;;;;;;;;;;10423274;28;20049;-77
2023/01/09 01:31:50;;;;;;;33.13;17.60;;;;;;;;;;10443506;28;20140;-78
2023/01/09 01:36:51;;;;;;;34.50;17.65;;;;;;;;;;10486440;28;20063;-77
2023/01/09 01:41:53;;;;;;;30.48;16.15;;;;;;;;;;10476806;28;20147;-77
2023/01/09 01:46:54;;;;;;;35.27;18.37;;;;;;;;;;10491485;28;20044;-77
2023/01/09 01:51:54;;;;;;;32.13;16.27;;;;;;;;;;10456663;28;20302;-79
2023/01/09 01:56:57;;;;;;;32.78;16.33;;;;;;;;;;10458581;28;20048;-75
2023/01/09 02:02:01;;;;;;;31.50;16.35;;;;;;;;;;10427273;28;20374;-77
2023/01/09 02:07:03;;;;;;;28.08;15.82;;;;;;;;;;10433695;28;20048;-77
2023/01/09 02:12:18;;;;;;;31.92;15.88;;;;;;;;;;10406645;28;20049;-77
2023/01/09 02:17:38;;;;;;;32.42;17.20;;;;;;;;;;10407468;28;20080;-78
2023/01/09 02:22:56;;;;;;;33.33;17.15;;;;;;;;;;10425694;28;20048;-77
2023/01/09 02:27:56;;;;;;;32.10;16.70;;;;;;;;;;10412727;28;20053;-76
2023/01/09 02:33:00;;;;;;;34.23;17.47;;;;;;;;;;10417355;28;20057;-77
2023/01/09 02:38:22;;;;;;;26.75;15.90;;;;;;;;;;10401080;28;20037;-76
2023/01/09 02:43:23;;;;;;;26.20;14.52;;;;;;;;;;10412801;28;20045;-78
2023/01/09 02:48:23;;;;;;;25.67;14.13;;;;;;;;;;10425279;28;20535;-77
2023/01/09 02:53:39;;;;;;;22.73;13.30;;;;;;;;;;10415647;28;20056;-77
2023/01/09 02:58:54;;;;;;;26.27;13.63;;;;;;;;;;10408575;28;20129;-76
2023/01/09 03:04:03;;;;;;;20.48;11.80;;;;;;;;;;10413325;28;20053;-77
2023/01/09 03:09:07;;;;;;;22.55;12.52;;;;;;;;;;10415341;28;20054;-76
2023/01/09 03:14:11;;;;;;;23.48;12.32;;;;;;;;;;10417329;28;20051;-77
2023/01/09 03:19:14;;;;;;;21.23;12.45;;;;;;;;;;10423840;28;20112;-76
2023/01/09 03:24:15;;;;;;;20.85;12.90;;;;;;;;;;10411013;28;20142;-76
2023/01/09 03:29:16;;;;;;;23.65;13.50;;;;;;;;;;10416571;28;20059;-77
2023/01/09 03:34:17;;;;;;;21.50;13.48;;;;;;;;;;10404889;28;20475;-77
2023/01/09 03:39:18;;;;;;;21.40;12.82;;;;;;;;;;10465332;28;20109;-78
2023/01/09 03:44:20;;;;;;;23.17;13.03;;;;;;;;;;10444769;28;20049;-78
2023/01/09 03:49:20;;;;;;;22.33;12.88;;;;;;;;;;10414824;28;20719;-78
2023/01/09 03:54:24;;;;;;;20.20;12.18;;;;;;;;;;10430873;28;20057;-73
2023/01/09 03:59:24;;;;;;;21.45;13.13;;;;;;;;;;10413496;28;20041;-79
2023/01/09 04:04:25;;;;;;;20.35;13.43;;;;;;;;;;10426844;28;20037;-77
2023/01/09 04:09:25;;;;;;;23.38;13.30;;;;;;;;;;10421349;28;20057;-77
2023/01/09 04:14:27;;;;;;;25.10;14.85;;;;;;;;;;10435830;28;20083;-77
2023/01/09 04:19:28;;;;;;;29.67;15.68;;;;;;;;;;10426866;28;20064;-76
2023/01/09 04:24:31;;;;;;;26.02;15.77;;;;;;;;;;10424683;28;20065;-75
2023/01/09 04:29:32;;;;;;;26.77;15.37;;;;;;;;;;10422403;28;20065;-77
2023/01/09 04:34:32;;;;;;;28.35;15.48;;;;;;;;;;10418915;28;20045;-77
2023/01/09 04:39:36;;;;;;;25.63;15.90;;;;;;;;;;10406121;28;20106;-75
2023/01/09 04:44:36;;;;;;;28.70;16.30;;;;;;;;;;10399348;28;20874;-77
2023/01/09 04:49:40;;;;;;;28.85;16.00;;;;;;;;;;10417566;28;20049;-77
2023/01/09 04:54:41;;;;;;;26.53;15.90;;;;;;;;;;10424590;28;20048;-78
2023/01/09 04:59:42;;;;;;;26.55;16.20;;;;;;;;;;10434366;28;20291;-76
2023/01/09 05:04:42;;;;;;;30.80;16.45;;;;;;;;;;10422592;28;20041;-77
2023/01/09 05:09:43;;;;;;;32.10;17.73;;;;;;;;;;10416137;28;20046;-77
2023/01/09 05:14:45;;;;;;;32.53;17.43;;;;;;;;;;10457998;28;20097;-76
2023/01/09 05:19:47;;;;;;;26.52;15.70;;;;;;;;;;10483545;28;20299;-77
2023/01/09 05:24:50;;;;;;;28.17;16.33;;;;;;;;;;10477747;28;20060;-77
2023/01/09 05:29:53;;;;;;;26.67;16.60;;;;;;;;;;10482411;28;20108;-78
2023/01/09 05:34:54;;;;;;;30.95;17.40;;;;;;;;;;10479835;28;20272;-78
2023/01/09 05:39:54;;;;;;;29.20;16.80;;;;;;;;;;10438426;28;20069;-75
2023/01/09 05:44:55;;;;;;;32.45;16.77;;;;;;;;;;10421068;28;20064;-77
2023/01/09 05:50:00;;;;;;;33.17;18.27;;;;;;;;;;10419576;28;20053;-77
2023/01/09 05:55:01;;;;;;;34.50;18.23;;;;;;;;;;10408306;28;20049;-75
2023/01/09 06:00:02;;;;;;;30.27;17.42;;;;;;;;;;10407186;28;20703;-76
2023/01/09 06:05:07;;;;;;;32.58;18.60;;;;;;;;;;10405366;28;20051;-75
2023/01/09 06:10:10;;;;;;;18.90;11.80;;;;;;;;;;10448175;28;20117;-78
2023/01/09 06:15:11;;;;;;;7.28;4.75;;;;;;;;;;10449584;28;20093;-77
2023/01/09 06:20:13;;;;;;;2.20;2.00;;;;;;;;;;10482119;28;20055;-79
2023/01/09 06:25:14;;;;;;;2.93;1.97;;;;;;;;;;10469389;28;20040;-79
2023/01/09 06:30:18;;;;;;;2.55;1.42;;;;;;;;;;10467818;28;20060;-78
2023/01/09 06:35:19;;;;;;;3.10;2.33;;;;;;;;;;10434899;28;20048;-78
2023/01/09 06:40:20;;;;;;;2.92;1.50;;;;;;;;;;10419109;28;20054;-77
2023/01/09 06:45:21;;;;;;;2.33;1.77;;;;;;;;;;10431320;28;20053;-76
2023/01/09 06:50:22;;;;;;;1.33;1.00;;;;;;;;;;10422815;28;20081;-77
2023/01/09 06:55:22;;;;;;;1.58;0.90;;;;;;;;;;10415690;28;20041;-82
2023/01/09 07:00:23;;;;;;;1.27;0.90;;;;;;;;;;10405873;28;20695;-76
2023/01/09 07:05:23;;;;;;;0.93;0.80;;;;;;;;;;10412651;28;20049;-77
2023/01/09 07:10:24;;;;;;;1.55;1.38;;;;;;;;;;10407800;28;20085;-78
2023/01/09 07:15:24;;;;;;;1.23;0.95;;;;;;;;;;10425708;28;20056;-75
2023/01/09 07:20:25;;;;;;;1.40;1.20;;;;;;;;;;10415778;28;20041;-77
2023/01/09 07:25:25;;;;;;;1.10;1.00;;;;;;;;;;10427448;28;20043;-80
2023/01/09 07:30:26;;;;;;;2.05;1.20;;;;;;;;;;10411762;28;20140;-77
2023/01/09 07:35:26;;;;;;;1.60;1.13;;;;;;;;;;10428128;28;20041;-78
2023/01/09 07:40:27;;;;;;;1.05;1.00;;;;;;;;;;10423309;28;20294;-78
2023/01/09 07:45:27;;;;;;;1.30;1.20;;;;;;;;;;10425440;28;20128;-79
2023/01/09 07:50:28;;;;;;;1.30;1.20;;;;;;;;;;10429379;28;20511;-77
2023/01/09 07:55:28;;;;;;;1.45;1.08;;;;;;;;;;10438051;28;20051;-80
2023/01/09 08:00:29;;;;;;;3.92;2.17;;;;;;;;;;10413384;28;20040;-78
2023/01/09 08:05:30;;;;;;;1.83;1.10;;;;;;;;;;10434416;28;20463;-77
2023/01/09 08:10:30;;;;;;;2.13;1.08;;;;;;;;;;10419676;28;20119;-77
2023/01/09 08:15:32;;;;;;;2.08;1.00;;;;;;;;;;10415332;28;20485;-79
2023/01/09 08:20:32;;;;;;;1.73;1.10;;;;;;;;;;10409329;28;20044;-78
2023/01/09 08:25:33;;;;;;;3.25;1.40;;;;;;;;;;10425390;28;20051;-78
2023/01/09 08:30:33;;;;;;;2.70;1.30;;;;;;;;;;10452421;28;20096;-78
2023/01/09 08:35:35;;;;;;;1.70;1.10;;;;;;;;;;10484103;28;20263;-78
2023/01/09 08:40:36;;;;;;;5.68;1.45;;;;;;;;;;10476741;28;20550;-77
2023/01/09 08:50:56;;;;;;;1.65;1.00;;;;;;;;;;10451950;28;20076;-79
2023/01/09 08:55:56;;;;;;;1.70;1.05;;;;;;;;;;10419453;28;20128;-77
2023/01/09 09:00:57;;;;;;;4.32;1.40;;;;;;;;;;10426831;28;20115;-78
2023/01/09 09:05:58;;;;;;;2.42;0.90;;;;;;;;;;10431999;28;20049;-79
2023/01/09 09:11:00;;;;;;;1.90;1.20;;;;;;;;;;10437814;28;20508;-78
2023/01/09 09:16:00;;;;;;;3.33;1.20;;;;;;;;;;10450324;28;20045;-79
2023/01/09 09:21:00;;;;;;;4.03;1.35;;;;;;;;;;10460416;28;20110;-78
2023/01/09 09:26:01;;;;;;;3.85;1.00;;;;;;;;;;10466796;28;20065;-78
2023/01/09 09:31:05;;;;;;;3.28;1.08;;;;;;;;;;10445960;28;20041;-78
2023/01/09 09:36:05;;;;;;;4.03;1.10;;;;;;;;;;10470067;28;20041;-79
2023/01/09 09:44:41;;;;;;;3.10;1.00;;;;;;;;;;10464752;28;20067;-78
2023/01/09 09:46:35;;;;;;;3.13;1.10;;;;;;;;;;10462820;28;20084;-79
2023/01/09 09:51:56;;;;;;;3.25;1.30;;;;;;;;;;10465890;28;20096;-81
2023/01/09 09:56:58;;;;;;;2.45;0.88;;;;;;;;;;10459102;28;20045;-78
2023/01/09 10:02:01;;;;;;;4.40;1.00;;;;;;;;;;10429790;28;20123;-77
2023/01/09 10:07:08;;;;;;;3.13;1.02;;;;;;;;;;10426836;28;20055;-78
2023/01/09 10:12:27;;;;;;;2.03;0.90;;;;;;;;;;10422923;28;20478;-77
2023/01/09 10:17:31;;;;;;;4.80;0.98;;;;;;;;;;10397328;28;20052;-78
2023/01/09 10:22:40;;;;;;;1.52;0.93;;;;;;;;;;10421519;28;20126;-78
2023/01/09 10:27:41;;;;;;;3.08;1.23;;;;;;;;;;10425362;28;20045;-78
2023/01/09 10:32:55;;;;;;;4.33;1.13;;;;;;;;;;10417353;28;20041;-79
2023/01/09 10:37:57;;;;;;;4.95;3.15;;;;;;;;;;10422050;28;20329;-79
2023/01/09 10:43:02;;;;;;;5.95;1.05;;;;;;;;;;10415679;28;20068;-79
2023/01/09 10:48:21;;;;;;;3.95;1.38;;;;;;;;;;10409379;28;20054;-78
2023/01/09 10:53:24;;;;;;;2.83;1.05;;;;;;;;;;10439387;28;20029;-81
2023/01/09 10:58:27;;;;;;;2.78;1.20;;;;;;;;;;10475116;28;20034;-78
2023/01/09 11:03:29;;;;;;;4.30;1.02;;;;;;;;;;10475036;28;20093;-78
2023/01/09 11:08:30;;;;;;;5.03;1.50;;;;;;;;;;10419635;28;20492;-77
2023/01/09 11:13:33;;;;;;;3.90;1.20;;;;;;;;;;10402461;28;20049;-78
2023/01/09 11:18:36;;;;;;;3.95;1.65;;;;;;;;;;10440938;28;20041;-77
2023/01/09 11:23:39;;;;;;;3.58;1.30;;;;;;;;;;10416968;28;20060;-78
2023/01/09 11:28:39;;;;;;;4.35;1.20;;;;;;;;;;10424896;28;20053;-78
2023/01/09 11:33:46;;;;;;;3.53;1.10;;;;;;;;;;10403434;28;20441;-78
2023/01/09 11:38:58;;;;;;;4.18;1.10;;;;;;;;;;10432280;28;20679;-78
2023/01/09 11:43:59;;;;;;;4.00;1.40;;;;;;;;;;10405872;28;20046;-79
2023/01/09 11:49:02;;;;;;;3.38;1.13;;;;;;;;;;10417508;28;20484;-79
2023/01/09 11:54:07;;;;;;;5.38;1.10;;;;;;;;;;10413418;28;20047;-79
2023/01/09 11:59:12;;;;;;;3.40;1.00;;;;;;;;;;10414793;28;20045;-79
2023/01/09 12:04:17;;;;;;;4.78;1.38;;;;;;;;;;10426240;28;20571;-79
2023/01/09 12:09:23;;;;;;;2.53;1.02;;;;;;;;;;10429794;28;20195;-76
2023/01/09 12:14:36;;;;;;;3.58;0.88;;;;;;;;;;10399859;28;20041;-78
2023/01/09 12:19:49;;;;;;;3.33;1.00;;;;;;;;;;10428076;28;20060;-76
2023/01/09 12:24:59;;;;;;;2.10;1.00;;;;;;;;;;10420833;28;20071;-76
2023/01/09 12:30:15;;;;;;;1.58;1.02;;;;;;;;;;10412569;28;20065;-77
2023/01/09 12:35:25;;;;;;;1.10;0.82;;;;;;;;;;10425599;28;20049;-79
2023/01/09 12:40:28;;;;;;;2.30;1.02;;;;;;;;;;10423981;28;20052;-80
2023/01/09 12:45:35;;;;;;;2.72;1.30;;;;;;;;;;10420600;28;20056;-78
2023/01/09 12:50:45;;;;;;;3.58;1.65;;;;;;;;;;10429512;28;20053;-77
2023/01/09 12:55:57;;;;;;;3.28;1.30;;;;;;;;;;10405316;28;20056;-78
2023/01/09 13:00:59;;;;;;;1.65;1.30;;;;;;;;;;10426396;28;20508;-76
2023/01/09 13:06:01;;;;;;;4.60;1.50;;;;;;;;;;10405492;28;20053;-77
2023/01/09 13:11:11;;;;;;;1.13;1.03;;;;;;;;;;10405394;28;20050;-78
2023/01/09 13:16:20;;;;;;;4.40;1.88;;;;;;;;;;10421354;28;20497;-78
2023/01/09 13:21:20;;;;;;;3.13;1.70;;;;;;;;;;10456124;28;20025;-80
2023/01/09 13:26:28;;;;;;;2.38;1.35;;;;;;;;;;10483078;28;20056;-79
2023/01/09 13:31:39;;;;;;;3.15;1.85;;;;;;;;;;10440307;28;20062;-78
2023/01/09 13:36:49;;;;;;;4.90;1.40;;;;;;;;;;10431694;28;20065;-79
2023/01/09 13:47:17;;;;;;;3.83;1.92;;;;;;;;;;10419488;28;20052;-77
2023/01/09 13:52:50;;;;;;;3.47;1.30;;;;;;;;;;10452443;28;20038;-79
2023/01/09 13:58:03;;;;;;;3.75;1.42;;;;;;;;;;10391501;28;20037;-77
2023/01/09 14:03:05;;;;;;;6.72;2.20;;;;;;;;;;10427404;28;20242;-79
2023/01/09 14:08:14;;;;;;;2.85;1.25;;;;;;;;;;10437142;28;20049;-79
2023/01/09 14:13:20;;;;;;;2.85;1.75;;;;;;;;;;10430064;28;20057;-78
2023/01/09 14:18:24;;;;;;;4.05;1.95;;;;;;;;;;10439024;28;20113;-81
2023/01/09 14:23:29;;;;;;;5.25;1.33;;;;;;;;;;10413655;28;20079;-80
2023/01/09 14:28:32;;;;;;;3.67;1.63;;;;;;;;;;10432019;28;20047;-79
2023/01/09 14:33:34;;;;;;;2.60;1.70;;;;;;;;;;10423972;28;20382;-79
2023/01/09 14:38:51;;;;;;;3.53;1.75;;;;;;;;;;10432423;28;20047;-78
2023/01/09 14:43:59;;;;;;;3.00;1.90;;;;;;;;;;10434195;28;20045;-80
2023/01/09 14:49:00;;;;;;;3.95;1.90;;;;;;;;;;10421724;28;20060;-78
2023/01/09 14:54:05;;;;;;;6.20;2.67;;;;;;;;;;10427576;28;20119;-78
2023/01/09 14:59:11;;;;;;;5.45;2.42;;;;;;;;;;10419041;28;20053;-80
2023/01/09 15:04:37;;;;;;;4.70;2.03;;;;;;;;;;10430537;28;20397;-78
2023/01/09 15:09:44;;;;;;;5.30;2.20;;;;;;;;;;10413032;28;20057;-79
2023/01/09 15:14:48;;;;;;;3.60;1.73;;;;;;;;;;10427316;28;20041;-81
2023/01/09 15:19:54;;;;;;;3.45;1.50;;;;;;;;;;10413776;28;20048;-78
2023/01/09 15:25:02;;;;;;;3.85;1.77;;;;;;;;;;10438978;28;20052;-78
2023/01/09 15:30:14;;;;;;;2.70;1.73;;;;;;;;;;10456152;28;20057;-75
2023/01/09 15:35:15;;;;;;;3.05;1.48;;;;;;;;;;10486630;28;20091;-78
2023/01/09 15:40:25;;;;;;;2.40;1.30;;;;;;;;;;10481151;28;20127;-80
2023/01/09 15:45:37;;;;;;;2.40;1.00;;;;;;;;;;10495219;28;20032;-81
2023/01/09 15:50:39;;;;;;;1.98;1.10;;;;;;;;;;10553658;28;20063;-75
2023/01/09 15:55:41;;;;;;;1.70;1.27;;;;;;;;;;10520720;28;20072;-77
2023/01/09 16:00:52;;;;;;;3.42;1.40;;;;;;;;;;10498044;28;20154;-77
2023/01/09 16:06:04;;;;;;;2.05;1.38;;;;;;;;;;10497880;28;20051;-78
2023/01/09 16:11:06;;;;;;;2.92;1.50;;;;;;;;;;10517030;28;20059;-78
2023/01/09 16:16:08;;;;;;;3.30;1.60;;;;;;;;;;10498911;28;20040;-79
2023/01/09 16:21:12;;;;;;;3.00;1.67;;;;;;;;;;10507429;28;20411;-78
2023/01/09 16:26:18;;;;;;;7.50;3.35;;;;;;;;;;10498205;28;20143;-75
2023/01/09 16:31:26;;;;;;;4.78;2.80;;;;;;;;;;10509124;28;20063;-78
2023/01/09 16:36:27;;;;;;;4.70;2.10;;;;;;;;;;10521743;28;20041;-78
2023/01/09 16:46:49;;;;;;;4.03;2.30;;;;;;;;;;10521315;28;20076;-78
2023/01/09 16:51:51;;;;;;;6.63;2.78;;;;;;;;;;10532659;28;20060;-80
2023/01/09 16:56:53;;;;;;;4.70;2.33;;;;;;;;;;10522739;28;20105;-79
2023/01/09 17:01:54;;;;;;;3.40;2.28;;;;;;;;;;10532650;28;20043;-81
2023/01/09 17:06:57;;;;;;;3.47;2.27;;;;;;;;;;10563018;28;20099;-82
2023/01/09 17:11:57;;;;;;;13.02;5.80;;;;;;;;;;10549090;28;20052;-77
2023/01/09 17:16:59;;;;;;;9.13;4.50;;;;;;;;;;10537135;28;20052;-80
2023/01/09 17:22:13;;;;;;;6.68;4.10;;;;;;;;;;10545051;28;20044;-79
2023/01/09 17:32:39;;;;;;;5.53;3.30;;;;;;;;;;10514884;28;20044;-77
2023/01/09 17:37:40;;;;;;;3.53;2.90;;;;;;;;;;10515689;28;20044;-79
2023/01/09 17:42:41;;;;;;;5.07;3.63;;;;;;;;;;10512514;28;20039;-81
2023/01/09 17:47:41;;;;;;;4.22;3.60;;;;;;;;;;10551135;28;20032;-79
2023/01/09 17:52:42;;;;;;;5.68;3.88;;;;;;;;;;10571122;28;20024;-78
2023/01/09 17:57:43;;;;;;;6.93;3.90;;;;;;;;;;10577305;28;20040;-79
2023/01/09 18:02:44;;;;;;;6.97;5.60;;;;;;;;;;10524657;28;20048;-78
2023/01/09 18:07:44;;;;;;;6.43;4.93;;;;;;;;;;10524976;28;20052;-78
2023/01/09 18:12:48;;;;;;;7.40;4.97;;;;;;;;;;10536375;28;20290;-81
2023/01/09 18:17:49;;;;;;;10.75;4.70;;;;;;;;;;10504694;28;20040;-80
2023/01/09 18:22:50;;;;;;;6.05;4.05;;;;;;;;;;10496610;28;20048;-79
2023/01/09 18:27:56;;;;;;;4.13;3.30;;;;;;;;;;10495323;28;20059;-83
2023/01/09 18:32:59;;;;;;;7.15;4.30;;;;;;;;;;10512097;28;20651;-83
2023/01/09 18:38:01;;;;;;;5.30;3.67;;;;;;;;;;10520062;28;20135;-78
2023/01/09 18:43:04;;;;;;;6.47;4.32;;;;;;;;;;10508975;28;20107;-82
2023/01/09 18:48:06;;;;;;;10.95;4.97;;;;;;;;;;10501484;28;20059;-80
2023/01/09 18:53:09;;;;;;;9.40;4.63;;;;;;;;;;10467914;28;20083;-79
2023/01/09 18:58:09;;;;;;;6.80;4.10;;;;;;;;;;10462165;28;20504;-78
2023/01/09 19:03:15;;;;;;;8.27;5.40;;;;;;;;;;10454806;28;20059;-80
2023/01/09 19:08:16;;;;;;;6.38;3.95;;;;;;;;;;10443820;28;20620;-80
2023/01/09 19:13:17;;;;;;;5.80;4.40;;;;;;;;;;10449372;28;20130;-82
2023/01/09 19:18:19;;;;;;;5.70;3.97;;;;;;;;;;10468745;28;20059;-81
2023/01/09 19:23:24;;;;;;;4.03;3.28;;;;;;;;;;10457608;28;20056;-79
2023/01/09 19:28:25;;;;;;;5.65;4.20;;;;;;;;;;10470445;28;20540;-78
2023/01/09 19:33:25;;;;;;;5.60;4.30;;;;;;;;;;10464453;28;20051;-79
2023/01/09 19:38:26;;;;;;;6.63;4.03;;;;;;;;;;10460843;28;20147;-79
2023/01/09 19:43:28;;;;;;;5.20;3.33;;;;;;;;;;10473366;28;20040;-78
2023/01/09 19:48:31;;;;;;;6.25;4.07;;;;;;;;;;10466507;28;20382;-78
2023/01/09 19:53:33;;;;;;;12.68;6.82;;;;;;;;;;10455306;28;20473;-80
2023/01/09 19:58:33;;;;;;;6.78;3.22;;;;;;;;;;10481266;28;20045;-79
2023/01/09 20:03:36;;;;;;;2.90;2.50;;;;;;;;;;10530053;28;20039;-79
2023/01/09 20:08:38;;;;;;;7.15;2.30;;;;;;;;;;10509953;28;20090;-79
2023/01/09 20:13:38;;;;;;;2.88;2.58;;;;;;;;;;10528358;28;20047;-79
2023/01/09 20:18:39;;;;;;;3.50;2.80;;;;;;;;;;10462727;28;20103;-80
2023/01/09 20:23:40;;;;;;;4.13;2.78;;;;;;;;;;10497793;28;20041;-78
2023/01/09 20:28:42;;;;;;;3.60;2.85;;;;;;;;;;10448662;28;20060;-78
2023/01/09 20:33:45;;;;;;;2.88;2.17;;;;;;;;;;10481044;28;20044;-79
2023/01/09 20:38:45;;;;;;;2.03;1.83;;;;;;;;;;10477816;28;20048;-79
2023/01/09 20:43:45;;;;;;;2.65;1.80;;;;;;;;;;10451377;28;20048;-77
2023/01/09 20:48:50;;;;;;;2.03;1.83;;;;;;;;;;10461154;28;20052;-78
2023/01/09 20:53:55;;;;;;;1.73;1.63;;;;;;;;;;10478992;28;20049;-77
2023/01/09 20:59:00;;;;;;;1.65;1.20;;;;;;;;;;10465693;28;20049;-77
2023/01/09 21:04:01;;;;;;;1.88;1.40;;;;;;;;;;10471153;28;20045;-78
2023/01/09 21:09:05;;;;;;;2.35;1.60;;;;;;;;;;10452773;28;20045;-78
2023/01/09 21:14:06;;;;;;;2.17;1.55;;;;;;;;;;10471699;28;20532;-79
2023/01/09 21:19:07;;;;;;;3.10;1.52;;;;;;;;;;10467089;28;20183;-78
2023/01/09 21:24:08;;;;;;;1.73;1.40;;;;;;;;;;10469084;28;20052;-78
2023/01/09 21:29:12;;;;;;;2.55;1.65;;;;;;;;;;10458369;28;20052;-78
2023/01/09 21:34:14;;;;;;;;;;;;;;;;;;10476848;28;20074;-78
2023/01/09 21:39:15;;;;;;;1.77;1.40;;;;;;;;;;10475892;28;19947;-79
2023/01/09 21:49:38;;;;;;;2.03;1.83;;;;;;;;;;10468945;28;20106;-78
2023/01/09 21:54:38;;;;;;;;;;;;;;;;;;10479560;28;20865;-79
2023/01/09 21:59:40;;;;;;;2.20;1.83;;;;;;;;;;10472111;28;19912;-81
2023/01/09 22:04:42;;;;;;;3.47;1.93;;;;;;;;;;10451447;28;20131;-77
2023/01/09 22:09:43;;;;;;;3.45;1.83;;;;;;;;;;10483111;28;20551;-79
2023/01/09 22:14:45;;;;;;;1.73;1.48;;;;;;;;;;10500264;28;20080;-78
2023/01/09 22:19:47;;;;;;;4.83;1.77;;;;;;;;;;10529095;28;20064;-78
2023/01/09 22:24:51;;;;;;;2.22;1.60;;;;;;;;;;10486692;28;20043;-77
2023/01/09 22:29:52;;;;;;;2.50;1.43;;;;;;;;;;10494799;28;20149;-78
2023/01/09 22:34:53;;;;;;;2.35;1.80;;;;;;;;;;10464551;28;20051;-80
2023/01/09 22:39:53;;;;;;;3.28;1.17;;;;;;;;;;10429831;28;20081;-78
2023/01/09 22:44:54;;;;;;;3.47;1.38;;;;;;;;;;10463780;28;20139;-79
2023/01/09 22:49:56;;;;;;;2.60;1.30;;;;;;;;;;10471372;28;20048;-79
2023/01/09 22:54:56;;;;;;;3.33;1.30;;;;;;;;;;10514921;28;20342;-79
2023/01/09 22:59:56;;;;;;;1.83;1.15;;;;;;;;;;10510532;28;20044;-78
2023/01/09 23:04:57;;;;;;;1.55;1.30;;;;;;;;;;10471278;28;20086;-79
2023/01/09 23:10:00;;;;;;;3.55;1.17;;;;;;;;;;10468484;28;20063;-78
2023/01/09 23:15:01;;;;;;;3.55;1.73;;;;;;;;;;10467253;28;20055;-81
2023/01/09 23:20:07;;;;;;;2.78;1.50;;;;;;;;;;10444046;28;20048;-78
2023/01/09 23:25:07;;;;;;;2.85;1.77;;;;;;;;;;10448535;28;20055;-77
2023/01/09 23:30:08;;;;;;;3.78;1.85;;;;;;;;;;10461768;28;20050;-79
2023/01/09 23:35:09;;;;;;;3.42;1.48;;;;;;;;;;10444119;28;20135;-78
2023/01/09 23:40:10;;;;;;;2.35;1.55;;;;;;;;;;10476010;28;20044;-77
2023/01/09 23:45:11;;;;;;;3.17;1.75;;;;;;;;;;10458089;28;20051;-76
2023/01/09 23:50:12;;;;;;;2.88;1.60;;;;;;;;;;10447646;28;20060;-79
2023/01/09 23:55:13;;;;;;;3.50;1.80;;;;;;;;;;10460801;28;20103;-78
